Time;durP1;ratioP1;P1;durP2;ratioP2;P2;SDS_P1;SDS_P2;PMS_P1;PMS_P2;Temp;Humidity;BMP_temperature;BMP_pressure;BME280_temperature;BME280_humidity;BME280_pressure;Samples;Min_cycle;Max_cycle;Signal;HPM_P1;HPM_P2
2023/04/08 00:01:21;;;;;;;51.35;35.75;;;4.90;99.90;;;;;;4882104;29;20025;-90
2023/04/08 00:03:48;;;;;;;51.33;35.53;;;4.80;99.90;;;;;;4882047;29;20029;-89
2023/04/08 00:06:15;;;;;;;57.60;38.83;;;4.80;99.90;;;;;;4882021;29;20502;-89
2023/04/08 00:08:41;;;;;;;55.10;36.63;;;4.90;99.90;;;;;;4882154;29;20037;-90
2023/04/08 00:11:11;;;;;;;58.53;38.72;;;4.90;99.90;;;;;;4881834;29;20025;-89
2023/04/08 00:13:38;;;;;;;56.50;38.03;;;4.80;99.90;;;;;;4881691;29;20165;-89
2023/04/08 00:16:04;;;;;;;56.72;37.80;;;4.80;99.90;;;;;;4881847;29;20033;-89
2023/04/08 00:18:31;;;;;;;55.83;38.15;;;4.80;99.90;;;;;;4882091;29;20112;-89
2023/04/08 00:20:58;;;;;;;59.13;39.10;;;4.80;99.90;;;;;;4882144;29;20491;-89
2023/04/08 00:23:24;;;;;;;56.50;37.38;;;4.80;99.90;;;;;;4881923;29;20505;-89
2023/04/08 00:25:51;;;;;;;57.28;37.85;;;4.80;99.90;;;;;;4881837;29;20166;-89
2023/04/08 00:28:17;;;;;;;56.85;39.92;;;4.70;99.90;;;;;;4881547;29;20077;-88
2023/04/08 00:30:44;;;;;;;58.97;39.17;;;4.70;99.90;;;;;;4881655;29;20060;-89
2023/04/08 00:33:11;;;;;;;58.63;39.65;;;4.70;99.90;;;;;;4881702;29;20499;-88
2023/04/08 00:35:38;;;;;;;59.58;38.70;;;4.60;99.90;;;;;;4881587;29;20035;-89
2023/04/08 00:38:06;;;;;;;56.05;38.13;;;4.60;99.90;;;;;;4882033;29;20120;-89
2023/04/08 00:40:34;;;;;;;56.15;38.65;;;4.60;99.90;;;;;;4881404;29;20033;-90
2023/04/08 00:43:01;;;;;;;53.40;37.63;;;4.60;99.90;;;;;;4881520;29;20052;-89
2023/04/08 00:45:27;;;;;;;54.25;35.70;;;4.50;99.90;;;;;;4881529;29;20030;-89
2023/04/08 00:47:53;;;;;;;51.30;35.72;;;4.50;99.90;;;;;;4881442;29;20558;-89
2023/04/08 00:50:20;;;;;;;54.45;35.92;;;4.50;99.90;;;;;;4881441;29;20052;-89
2023/04/08 00:52:46;;;;;;;54.33;35.17;;;4.50;99.90;;;;;;4881304;29;20036;-89
2023/04/08 00:55:13;;;;;;;50.17;36.80;;;4.40;99.90;;;;;;4881275;29;20036;-89
2023/04/08 00:57:41;;;;;;;57.05;37.85;;;4.40;99.90;;;;;;4881244;29;20615;-89
2023/04/08 01:00:08;;;;;;;60.88;38.33;;;4.40;99.90;;;;;;4881096;29;20041;-90
2023/04/08 01:02:57;;;;;;;56.13;37.72;;;4.40;99.90;;;;;;4881100;29;20033;-88
2023/04/08 01:05:43;;;;;;;60.20;37.20;;;4.30;99.90;;;;;;4881037;29;20061;-88
2023/04/08 01:08:11;;;;;;;51.40;36.47;;;4.30;99.90;;;;;;4880815;29;20039;-89
2023/04/08 01:10:41;;;;;;;58.17;37.55;;;4.30;99.90;;;;;;4880994;29;20044;-89
2023/04/08 01:13:11;;;;;;;55.40;37.60;;;4.30;99.90;;;;;;4881137;29;20051;-89
2023/04/08 01:15:40;;;;;;;60.88;37.33;;;4.30;99.90;;;;;;4881039;29;20025;-89
2023/04/08 01:18:09;;;;;;;52.58;35.45;;;4.30;99.90;;;;;;4880726;29;20479;-89
2023/04/08 01:20:37;;;;;;;51.70;34.80;;;4.30;99.90;;;;;;4880779;29;20037;-89
2023/04/08 01:23:15;;;;;;;54.65;36.72;;;4.30;99.90;;;;;;4880768;29;20029;-89
2023/04/08 01:25:54;;;;;;;59.58;38.55;;;4.30;99.90;;;;;;4880319;29;20071;-88
2023/04/08 01:28:23;;;;;;;53.78;36.65;;;4.20;99.90;;;;;;4880610;29;20045;-89
2023/04/08 01:30:51;;;;;;;54.45;37.15;;;4.20;99.90;;;;;;4880725;29;20554;-90
2023/04/08 01:33:20;;;;;;;58.90;37.80;;;4.20;99.90;;;;;;4880544;29;20380;-89
2023/04/08 01:35:47;;;;;;;55.33;36.08;;;4.20;99.90;;;;;;4849794;29;20081;-89
2023/04/08 01:38:17;;;;;;;55.13;37.60;;;4.20;99.90;;;;;;4880624;29;20076;-89
2023/04/08 01:40:45;;;;;;;65.65;41.70;;;4.20;99.90;;;;;;4880528;29;20084;-89
2023/04/08 01:43:15;;;;;;;56.75;37.88;;;4.20;99.90;;;;;;4880475;29;20029;-89
2023/04/08 01:45:47;;;;;;;56.25;37.67;;;4.20;99.90;;;;;;4880379;29;20033;-90
2023/04/08 01:48:14;;;;;;;57.33;38.55;;;4.20;99.90;;;;;;4883503;29;20502;-89
2023/04/08 01:50:43;;;;;;;56.75;38.55;;;4.10;99.90;;;;;;4895714;29;20051;-89
2023/04/08 01:53:12;;;;;;;61.92;38.40;;;4.10;99.90;;;;;;4895440;29;20033;-89
2023/04/08 01:55:41;;;;;;;53.97;37.35;;;4.10;99.90;;;;;;4895689;29;20088;-89
2023/04/08 01:58:14;;;;;;;59.40;38.85;;;4.10;99.90;;;;;;4895950;29;20033;-88
2023/04/08 02:00:42;;;;;;;54.20;37.53;;;4.10;99.90;;;;;;4895732;29;20112;-89
2023/04/08 02:03:11;;;;;;;62.33;39.05;;;4.10;99.90;;;;;;4895754;29;20506;-89
2023/04/08 02:05:39;;;;;;;58.28;37.40;;;4.00;99.90;;;;;;4895709;29;20068;-89
2023/04/08 02:08:07;;;;;;;57.22;38.00;;;4.00;99.90;;;;;;4895435;29;20058;-90
2023/04/08 02:10:34;;;;;;;57.53;36.92;;;4.00;99.90;;;;;;4895455;29;20033;-90
2023/04/08 02:13:04;;;;;;;62.88;38.13;;;3.90;99.90;;;;;;4864400;29;20487;-89
2023/04/08 02:15:37;;;;;;;58.40;37.65;;;4.00;99.90;;;;;;4895279;29;20399;-90
2023/04/08 02:18:15;;;;;;;56.10;35.90;;;3.90;99.90;;;;;;4895454;29;20036;-90
2023/04/08 02:20:56;;;;;;;56.58;37.63;;;4.00;99.90;;;;;;4895192;29;20154;-90
2023/04/08 02:23:28;;;;;;;58.97;37.15;;;3.90;99.90;;;;;;4895374;29;20036;-89
2023/04/08 02:25:56;;;;;;;54.72;36.13;;;4.00;99.90;;;;;;4895550;29;20403;-89
2023/04/08 02:28:27;;;;;;;60.70;38.55;;;3.90;99.90;;;;;;4890732;29;20056;-89
2023/04/08 02:30:56;;;;;;;54.70;36.63;;;3.90;99.90;;;;;;4879621;29;20158;-89
2023/04/08 02:33:23;;;;;;;61.47;37.50;;;3.90;99.90;;;;;;4879611;29;20120;-88
2023/04/08 02:35:54;;;;;;;58.53;36.22;;;3.90;99.90;;;;;;4879502;29;20032;-89
2023/04/08 02:38:22;;;;;;;54.25;35.80;;;3.90;99.90;;;;;;4879604;29;20037;-89
2023/04/08 02:40:50;;;;;;;57.95;37.92;;;4.00;99.90;;;;;;4879515;29;20045;-89
2023/04/08 02:43:17;;;;;;;58.70;38.05;;;3.90;99.90;;;;;;4879524;29;20025;-90
2023/04/08 02:45:44;;;;;;;54.70;35.22;;;3.90;99.90;;;;;;4879585;29;20479;-88
2023/04/08 02:48:11;;;;;;;57.38;37.63;;;3.90;99.90;;;;;;4879774;29;20033;-89
2023/04/08 02:50:47;;;;;;;56.92;38.67;;;3.90;99.90;;;;;;4879618;29;20033;-89
2023/04/08 02:53:14;;;;;;;54.60;38.10;;;3.90;99.90;;;;;;4879428;29;20483;-89
2023/04/08 02:55:44;;;;;;;54.83;36.30;;;3.90;99.90;;;;;;4879435;29;20021;-89
2023/04/08 02:58:11;;;;;;;60.35;38.33;;;3.90;99.90;;;;;;4879338;29;20036;-89
2023/04/08 03:00:39;;;;;;;56.65;37.15;;;3.90;99.90;;;;;;4863989;29;20045;-89
2023/04/08 03:03:06;;;;;;;57.03;37.05;;;3.90;99.90;;;;;;4879345;29;20025;-90
2023/04/08 03:05:32;;;;;;;54.53;37.40;;;4.00;99.90;;;;;;4879319;29;20030;-88
2023/04/08 03:07:59;;;;;;;58.15;35.75;;;3.90;99.90;;;;;;4879165;29;20029;-89
2023/04/08 03:10:25;;;;;;;60.55;38.45;;;3.90;99.90;;;;;;4879386;29;20056;-89
2023/04/08 03:12:52;;;;;;;58.22;38.33;;;3.90;99.90;;;;;;4879611;29;20052;-90
2023/04/08 03:15:18;;;;;;;60.22;39.15;;;3.90;99.90;;;;;;4879332;29;20505;-89
2023/04/08 03:17:45;;;;;;;60.00;39.08;;;3.90;99.90;;;;;;4879167;29;20486;-89
2023/04/08 03:20:11;;;;;;;54.72;36.90;;;3.90;99.90;;;;;;4879203;29;20085;-88
2023/04/08 03:22:37;;;;;;;57.17;38.38;;;3.90;99.90;;;;;;4879045;29;20400;-89
2023/04/08 03:25:04;;;;;;;60.58;39.03;;;3.90;99.90;;;;;;4879012;29;20061;-89
2023/04/08 03:27:31;;;;;;;58.63;38.58;;;3.90;99.90;;;;;;4848224;29;20041;-89
2023/04/08 03:29:57;;;;;;;57.92;36.72;;;3.90;99.90;;;;;;4894276;29;20073;-89
2023/04/08 03:32:24;;;;;;;52.47;35.83;;;3.90;99.90;;;;;;4894541;29;20036;-90
2023/04/08 03:34:51;;;;;;;60.83;37.92;;;3.90;99.90;;;;;;4895951;29;20115;-89
2023/04/08 03:37:18;;;;;;;49.58;34.38;;;3.90;99.90;;;;;;4894719;29;20071;-89
2023/04/08 03:39:45;;;;;;;51.13;34.90;;;3.90;99.90;;;;;;4881148;29;20215;-89
2023/04/08 03:42:11;;;;;;;55.40;36.80;;;3.90;99.90;;;;;;4848215;29;20033;-88
2023/04/08 03:44:38;;;;;;;51.95;35.85;;;3.80;99.90;;;;;;4848076;29;20044;-90
2023/04/08 03:47:07;;;;;;;53.47;35.78;;;3.80;99.90;;;;;;4848662;29;20032;-89
2023/04/08 03:49:34;;;;;;;56.80;37.38;;;3.80;99.90;;;;;;4851759;29;20029;-89
2023/04/08 03:52:00;;;;;;;51.35;34.88;;;3.80;99.90;;;;;;4851389;29;20040;-89
2023/04/08 03:54:27;;;;;;;55.83;37.28;;;3.80;99.90;;;;;;4851489;29;20037;-89
2023/04/08 03:56:54;;;;;;;53.30;36.10;;;3.70;99.90;;;;;;4851736;29;20513;-89
2023/04/08 03:59:20;;;;;;;54.88;36.80;;;3.70;99.90;;;;;;4851486;29;20036;-89
2023/04/08 04:01:47;;;;;;;62.90;38.63;;;3.70;99.90;;;;;;4851487;29;20033;-89
2023/04/08 04:04:13;;;;;;;59.33;38.60;;;3.60;99.90;;;;;;4851328;29;20033;-89
2023/04/08 04:06:40;;;;;;;60.90;38.17;;;3.70;99.90;;;;;;4851244;29;20040;-89
2023/04/08 04:09:06;;;;;;;64.03;39.05;;;3.60;99.90;;;;;;4851300;29;20052;-89
2023/04/08 04:11:34;;;;;;;59.80;37.67;;;3.60;99.90;;;;;;4851277;29;20040;-89
2023/04/08 04:14:01;;;;;;;59.75;37.50;;;3.60;99.90;;;;;;4851185;29;20487;-88
2023/04/08 04:16:27;;;;;;;59.15;37.58;;;3.60;99.90;;;;;;4851154;29;20071;-88
2023/04/08 04:18:54;;;;;;;59.90;39.33;;;3.60;99.90;;;;;;4851030;29;20036;-89
2023/04/08 04:21:20;;;;;;;57.40;38.53;;;3.60;99.90;;;;;;4860457;29;20048;-90
2023/04/08 04:23:47;;;;;;;57.00;37.08;;;3.70;99.90;;;;;;4900690;29;20474;-89
2023/04/08 04:26:14;;;;;;;60.85;37.78;;;3.70;99.90;;;;;;4897062;29;20037;-89
2023/04/08 04:28:40;;;;;;;55.88;36.58;;;3.70;99.90;;;;;;4892550;29;20056;-89
2023/04/08 04:31:07;;;;;;;51.40;35.58;;;3.70;99.90;;;;;;4850852;29;20104;-89
2023/04/08 04:33:33;;;;;;;60.38;37.20;;;3.80;99.90;;;;;;4881612;29;20497;-89
2023/04/08 04:35:59;;;;;;;56.47;35.13;;;3.80;99.90;;;;;;4888171;29;20041;-90
2023/04/08 04:38:26;;;;;;;52.53;34.88;;;3.90;99.90;;;;;;4900275;29;20033;-89
2023/04/08 04:40:52;;;;;;;53.20;34.92;;;4.00;99.90;;;;;;4900120;29;20045;-89
2023/04/08 04:43:19;;;;;;;48.97;34.92;;;4.00;99.90;;;;;;4900287;29;20028;-89
2023/04/08 04:45:46;;;;;;;48.95;34.22;;;4.10;99.90;;;;;;4900061;29;20059;-89
2023/04/08 04:48:12;;;;;;;49.67;33.47;;;4.10;99.90;;;;;;4900144;29;20080;-89
2023/04/08 04:50:39;;;;;;;54.08;34.58;;;4.20;99.90;;;;;;4900062;29;20486;-89
2023/04/08 04:53:05;;;;;;;48.42;32.90;;;4.20;99.90;;;;;;4900439;29;20033;-89
2023/04/08 04:55:31;;;;;;;47.00;31.58;;;4.30;99.90;;;;;;4900371;29;20031;-88
2023/04/08 04:57:58;;;;;;;49.67;32.95;;;4.40;99.90;;;;;;4899861;29;20036;-89
2023/04/08 05:00:24;;;;;;;49.67;32.97;;;4.50;99.90;;;;;;4898979;29;20044;-89
2023/04/08 05:02:54;;;;;;;54.45;34.17;;;4.60;99.90;;;;;;4899876;29;20025;-90
2023/04/08 05:05:20;;;;;;;47.17;32.85;;;4.80;99.90;;;;;;4899762;29;20079;-89
2023/04/08 05:07:47;;;;;;;44.15;32.15;;;5.20;99.90;;;;;;4899797;29;20032;-89
2023/04/08 05:10:14;;;;;;;51.67;34.78;;;5.70;99.90;;;;;;4899774;29;20120;-89
2023/04/08 05:12:40;;;;;;;38.75;30.60;;;6.30;99.90;;;;;;4899835;29;20076;-89
2023/04/08 05:15:07;;;;;;;38.80;30.95;;;7.10;99.90;;;;;;4899747;29;20497;-89
2023/04/08 05:17:34;;;;;;;39.20;31.17;;;8.00;99.90;;;;;;4899424;29;20029;-89
2023/04/08 05:20:00;;;;;;;42.05;33.08;;;8.80;99.90;;;;;;4896265;29;20044;-87
2023/04/08 05:22:27;;;;;;;36.58;32.67;;;9.50;99.90;;;;;;4867809;29;20029;-90
2023/04/08 05:24:55;;;;;;;38.42;34.35;;;10.30;99.90;;;;;;4896266;29;20057;-87
2023/04/08 05:27:25;;;;;;;41.95;36.78;;;10.80;99.90;;;;;;4895969;29;20082;-90
2023/04/08 05:29:52;;;;;;;39.92;36.10;;;11.30;99.90;;;;;;4864765;29;20099;-87
2023/04/08 05:32:21;;;;;;;39.47;35.70;;;11.60;99.90;;;;;;4862023;29;20037;-87
2023/04/08 05:34:48;;;;;;;41.90;37.70;;;11.90;99.90;;;;;;4862170;29;20030;-88
2023/04/08 05:37:14;;;;;;;46.05;38.20;;;12.00;99.90;;;;;;4861933;29;20030;-88
2023/04/08 05:39:41;;;;;;;41.90;38.10;;;12.40;99.90;;;;;;4861844;29;20101;-88
2023/04/08 05:42:07;;;;;;;38.53;35.03;;;12.80;99.90;;;;;;4861791;29;20029;-87
2023/04/08 05:44:34;;;;;;;39.08;35.58;;;13.40;99.90;;;;;;4861862;29;20033;-87
2023/04/08 05:47:01;;;;;;;39.15;35.65;;;13.80;99.90;;;;;;4861998;29;20029;-88
2023/04/08 05:49:27;;;;;;;40.92;37.13;;;13.90;99.90;;;;;;4861669;29;20522;-87
2023/04/08 05:51:54;;;;;;;40.70;36.50;;;13.90;99.90;;;;;;4831248;29;20033;-87
2023/04/08 05:54:21;;;;;;;40.72;36.92;;;14.00;99.90;;;;;;4831302;29;20034;-87
2023/04/08 05:56:47;;;;;;;40.55;36.75;;;13.90;99.90;;;;;;4831150;29;20025;-87
2023/04/08 05:59:14;;;;;;;38.17;34.67;;;13.60;99.90;;;;;;4831154;29;20041;-88
2023/04/08 06:01:40;;;;;;;38.35;34.55;;;13.30;99.90;;;;;;4831204;29;20033;-87
2023/04/08 06:04:07;;;;;;;35.67;32.22;;;13.20;99.90;;;;;;4831111;29;20045;-88
2023/04/08 06:06:33;;;;;;;35.88;32.65;;;13.60;99.90;;;;;;4831120;29;20129;-87
2023/04/08 06:09:00;;;;;;;32.35;29.25;;;13.90;99.90;;;;;;4831737;29;20025;-87
2023/04/08 06:11:26;;;;;;;31.45;28.85;;;14.30;99.90;;;;;;4830661;29;20202;-87
2023/04/08 06:13:53;;;;;;;31.77;29.08;;;14.80;99.90;;;;;;4831497;29;20040;-88
2023/04/08 06:16:19;;;;;;;32.03;29.25;;;15.40;99.90;;;;;;4831049;29;20033;-87
2023/04/08 06:18:46;;;;;;;37.30;33.88;;;15.40;99.90;;;;;;4830814;29;20033;-87
2023/04/08 06:21:12;;;;;;;33.65;30.73;;;15.50;99.90;;;;;;4830857;29;20057;-88
2023/04/08 06:23:39;;;;;;;30.42;27.80;;;15.90;99.90;;;;;;4830819;29;20514;-87
2023/04/08 06:26:06;;;;;;;28.50;26.30;;;16.40;99.90;;;;;;4830587;29;20102;-89
2023/04/08 06:28:32;;;;;;;26.75;24.85;;;16.70;99.90;;;;;;4839289;29;20105;-87
2023/04/08 06:30:59;;;;;;;24.08;22.38;;;17.00;99.90;;;;;;4848873;29;20036;-88
2023/04/08 06:33:26;;;;;;;23.77;22.23;;;17.60;99.90;;;;;;4848869;29;20033;-88
2023/04/08 06:36:04;;;;;;;23.38;21.80;;;17.60;99.90;;;;;;4848822;29;20123;-87
2023/04/08 06:38:31;;;;;;;22.90;21.40;;;17.90;99.90;;;;;;4859979;29;20120;-88
2023/04/08 06:41:06;;;;;;;22.95;21.55;;;17.30;99.90;;;;;;4894983;29;20045;-87
2023/04/08 06:43:34;;;;;;;23.30;21.67;;;17.70;99.90;;;;;;4895079;29;20033;-88
2023/04/08 06:46:01;;;;;;;22.30;20.80;;;17.90;99.90;;;;;;4895017;29;20029;-88
2023/04/08 06:48:29;;;;;;;23.00;21.08;;;18.30;99.90;;;;;;4895515;29;20037;-87
2023/04/08 18:09:25;;;;;;;14.30;13.10;;;11.10;99.90;;;;;;6060453;23;21215;31
2023/04/08 18:11:52;;;;;;;15.73;14.23;;;11.00;99.90;;;;;;4888409;29;20071;-92
2023/04/08 18:14:18;;;;;;;15.13;13.80;;;10.90;99.90;;;;;;4874284;29;20099;-94
2023/04/08 18:19:48;;;;;;;16.70;15.07;;;10.80;99.90;;;;;;4906623;29;20135;-91
2023/04/08 18:22:16;;;;;;;19.20;15.20;;;10.70;99.90;;;;;;4866320;29;20060;-92
2023/04/08 18:24:43;;;;;;;16.98;15.15;;;10.70;99.90;;;;;;4902925;29;20116;-91
2023/04/08 18:31:23;;;;;;;14.82;13.38;;;10.70;99.90;;;;;;4931753;29;20087;-91
2023/04/08 18:33:51;;;;;;;17.63;15.05;;;10.70;99.90;;;;;;4920750;28;20078;-92
2023/04/08 18:36:17;;;;;;;16.08;14.57;;;10.60;99.90;;;;;;4958972;28;20037;-91
2023/04/08 18:38:44;;;;;;;15.52;13.95;;;10.60;99.90;;;;;;4974947;28;20162;-93
2023/04/08 18:41:12;;;;;;;18.55;15.73;;;10.60;99.90;;;;;;4958824;28;20066;-91
2023/04/08 18:43:41;;;;;;;29.88;22.27;;;10.60;99.90;;;;;;4956105;28;20027;-92
2023/04/08 18:46:08;;;;;;;31.63;23.75;;;10.60;99.90;;;;;;4958772;28;20046;-93
2023/04/08 18:48:35;;;;;;;28.85;24.27;;;10.60;99.90;;;;;;4982339;28;20448;-91
2023/04/08 18:51:02;;;;;;;26.58;22.67;;;10.70;99.90;;;;;;4961938;28;20023;-91
2023/04/08 18:53:29;;;;;;;32.47;24.60;;;10.60;99.90;;;;;;4958714;28;20472;-92
2023/04/08 18:55:56;;;;;;;27.15;21.17;;;10.70;99.90;;;;;;4959059;28;20033;-93
2023/04/08 18:58:23;;;;;;;29.08;23.17;;;10.70;99.90;;;;;;4974546;28;20098;-93
2023/04/08 19:00:49;;;;;;;27.80;22.08;;;10.80;99.90;;;;;;4958989;28;20090;-94
2023/04/08 19:03:16;;;;;;;26.55;21.05;;;10.70;99.90;;;;;;4958397;28;20042;-93
2023/04/08 19:05:43;;;;;;;27.17;20.38;;;10.70;99.90;;;;;;4958434;28;20055;-93
2023/04/08 19:08:09;;;;;;;28.17;24.73;;;10.60;99.90;;;;;;4974438;28;20026;-94
2023/04/08 19:10:36;;;;;;;32.13;22.98;;;10.50;99.90;;;;;;4958229;28;20031;-93
2023/04/08 19:13:03;;;;;;;30.15;22.45;;;10.40;99.90;;;;;;4974618;28;20027;-94
2023/04/08 19:15:29;;;;;;;27.83;21.50;;;10.40;99.90;;;;;;4958389;28;20546;-94
2023/04/08 19:17:57;;;;;;;25.10;20.58;;;10.30;99.90;;;;;;4958754;28;20035;-93
2023/04/08 19:20:26;;;;;;;25.48;20.90;;;10.20;99.90;;;;;;4979082;28;20094;-94
2023/04/08 19:23:05;;;;;;;25.33;20.92;;;10.20;99.90;;;;;;4963708;28;20027;-94
2023/04/08 19:25:41;;;;;;;25.80;20.25;;;10.10;99.90;;;;;;4979114;23;20133;-94
2023/04/08 19:28:08;;;;;;;22.75;19.83;;;10.10;99.90;;;;;;4948086;28;20063;-94
2023/04/08 19:30:40;;;;;;;26.27;18.83;;;10.00;99.90;;;;;;4953316;28;20026;-94
2023/04/08 19:33:32;;;;;;;25.40;19.23;;;10.00;99.90;;;;;;5473121;23;20138;-95
2023/04/08 19:36:05;;;;;;;21.30;19.08;;;9.90;99.90;;;;;;4956669;28;20026;-94
2023/04/08 19:38:33;;;;;;;23.10;19.65;;;9.90;99.90;;;;;;4979423;28;20069;-94
2023/04/08 19:46:28;;;;;;;22.42;18.65;;;9.70;99.90;;;;;;5472417;23;20058;-93
2023/04/08 19:48:57;;;;;;;27.60;18.83;;;9.70;99.90;;;;;;4952214;28;20041;-94
2023/04/08 19:51:53;;;;;;;25.85;17.55;;;9.60;99.90;;;;;;4960187;28;20094;-94
2023/04/08 19:54:35;;;;;;;25.67;17.83;;;9.60;99.90;;;;;;4884595;29;20081;-93
2023/04/08 19:57:43;;;;;;;24.33;17.58;;;9.60;99.90;;;;;;4868356;29;20072;-93
2023/04/08 20:00:10;;;;;;;22.75;18.02;;;9.60;99.90;;;;;;4877849;29;20158;-93
2023/04/08 20:02:37;;;;;;;23.00;17.60;;;9.60;99.90;;;;;;4855032;29;20033;-93
2023/04/08 20:05:23;;;;;;;25.73;17.98;;;9.50;99.90;;;;;;4853082;29;20045;-93
2023/04/08 20:07:50;;;;;;;26.15;18.73;;;9.50;99.90;;;;;;4852367;29;20041;-93
2023/04/08 20:10:19;;;;;;;25.17;18.75;;;9.40;99.90;;;;;;4851495;29;20028;-93
2023/04/08 20:12:46;;;;;;;26.52;20.20;;;9.30;99.90;;;;;;4881776;29;20033;-92
2023/04/08 20:15:13;;;;;;;25.92;19.65;;;9.30;99.90;;;;;;4850574;29;20041;-91
2023/04/08 20:17:39;;;;;;;29.13;19.90;;;9.30;99.90;;;;;;4854871;29;20045;-93
2023/04/08 20:20:06;;;;;;;27.98;20.23;;;9.30;99.90;;;;;;4852260;29;20509;-92
2023/04/08 20:22:33;;;;;;;31.20;21.05;;;9.30;99.90;;;;;;4881311;29;20037;-92
2023/04/08 20:25:00;;;;;;;30.40;20.63;;;9.20;99.90;;;;;;4881285;29;20033;-91
2023/04/08 20:27:27;;;;;;;31.20;20.50;;;9.20;99.90;;;;;;4850726;29;20037;-92
2023/04/08 20:29:54;;;;;;;28.50;19.45;;;9.10;99.90;;;;;;4851587;29;20033;-91
2023/04/08 20:32:24;;;;;;;31.77;20.08;;;9.10;99.90;;;;;;4942667;28;20050;-92
2023/04/08 20:34:51;;;;;;;29.10;19.10;;;9.10;99.90;;;;;;4945699;28;20484;-91
2023/04/08 20:37:18;;;;;;;30.90;18.60;;;9.10;99.90;;;;;;4945718;28;20042;-91
2023/04/08 20:39:45;;;;;;;26.63;19.58;;;9.10;99.90;;;;;;4946119;28;20105;-92
2023/04/08 20:42:11;;;;;;;30.60;18.35;;;9.10;99.90;;;;;;4945499;28;20031;-91
2023/04/08 20:44:38;;;;;;;25.20;18.15;;;9.00;99.90;;;;;;4945461;28;20061;-92
2023/04/08 20:47:05;;;;;;;23.67;17.92;;;9.00;99.90;;;;;;4945523;28;20046;-92
2023/04/08 20:49:33;;;;;;;24.02;18.17;;;9.00;99.90;;;;;;4944578;28;20027;-93
2023/04/08 20:52:00;;;;;;;22.45;17.70;;;8.90;99.90;;;;;;4960369;28;20487;-91
2023/04/08 20:54:29;;;;;;;20.65;16.75;;;8.90;99.90;;;;;;4944476;28;20038;-91
2023/04/08 20:56:56;;;;;;;22.55;16.73;;;8.80;99.90;;;;;;4945050;28;20030;-93
2023/04/08 20:59:22;;;;;;;24.38;17.58;;;8.80;99.90;;;;;;4944621;28;20096;-93
2023/04/08 21:01:49;;;;;;;24.85;17.90;;;8.80;99.90;;;;;;4944647;28;20027;-92
2023/04/08 21:04:19;;;;;;;23.77;16.42;;;8.70;99.90;;;;;;4944445;28;20027;-92
2023/04/08 21:06:47;;;;;;;19.50;15.85;;;8.60;99.90;;;;;;4944553;28;20121;-93
2023/04/08 21:09:14;;;;;;;23.48;16.42;;;8.60;99.90;;;;;;4944097;28;20031;-92
2023/04/08 21:11:41;;;;;;;22.83;16.58;;;8.60;99.90;;;;;;4944313;28;20117;-92
2023/04/08 21:14:07;;;;;;;22.38;15.77;;;8.60;99.90;;;;;;4944393;28;20027;-92
2023/04/08 21:16:33;;;;;;;22.17;16.60;;;8.70;99.90;;;;;;4944174;28;20038;-92
2023/04/08 21:19:00;;;;;;;25.63;18.25;;;8.70;99.90;;;;;;4944323;28;20110;-92
2023/04/08 21:21:28;;;;;;;22.17;17.42;;;8.80;99.90;;;;;;4943899;28;20115;-93
2023/04/08 21:23:54;;;;;;;26.80;17.35;;;8.80;99.90;;;;;;4949724;28;20033;-92
2023/04/08 21:26:21;;;;;;;23.05;16.98;;;8.80;99.90;;;;;;4945931;28;20054;-92
2023/04/08 21:28:48;;;;;;;23.95;16.50;;;8.80;99.90;;;;;;4946799;28;20037;-92
2023/04/08 21:31:15;;;;;;;24.52;16.17;;;8.80;99.90;;;;;;4946460;28;20117;-93
2023/04/08 21:33:42;;;;;;;22.95;16.17;;;8.80;99.90;;;;;;4944348;28;20110;-92
2023/04/08 21:36:09;;;;;;;23.45;15.98;;;8.80;99.90;;;;;;4943742;28;20128;-92
2023/04/08 21:38:36;;;;;;;22.65;15.27;;;8.70;99.90;;;;;;4959932;28;20034;-92
2023/04/08 21:41:03;;;;;;;20.75;14.60;;;8.70;99.90;;;;;;4942931;28;20039;-92
2023/04/08 21:43:29;;;;;;;19.75;14.88;;;8.70;99.90;;;;;;4943704;28;20033;-92
2023/04/08 21:45:56;;;;;;;20.48;14.48;;;8.60;99.90;;;;;;4943220;28;20043;-92
2023/04/08 21:48:23;;;;;;;18.90;14.18;;;8.60;99.90;;;;;;4959285;28;20059;-92
2023/04/08 21:50:49;;;;;;;21.98;14.80;;;8.60;99.90;;;;;;4943492;28;20080;-93
2023/04/08 21:53:16;;;;;;;23.90;14.55;;;8.60;99.90;;;;;;4943513;28;20026;-93
2023/04/08 21:55:43;;;;;;;25.23;15.25;;;8.50;99.90;;;;;;4943369;28;20050;-92
2023/04/08 21:58:11;;;;;;;25.17;15.05;;;8.50;99.90;;;;;;4943434;28;20178;-92
2023/04/08 22:00:37;;;;;;;29.20;14.48;;;8.40;99.90;;;;;;4943264;28;20061;-92
2023/04/08 22:03:06;;;;;;;30.83;15.55;;;8.40;99.90;;;;;;4943214;28;20555;-92
2023/04/08 22:05:32;;;;;;;31.63;16.10;;;8.50;99.90;;;;;;4943348;28;20062;-92
2023/04/08 22:08:00;;;;;;;31.90;16.67;;;8.50;99.90;;;;;;4943323;28;20030;-92
2023/04/08 22:10:26;;;;;;;31.10;16.38;;;8.50;99.90;;;;;;4943373;28;20082;-92
2023/04/08 22:12:53;;;;;;;30.58;16.13;;;8.50;99.90;;;;;;4950071;28;20037;-91
2023/04/08 22:15:20;;;;;;;25.45;14.95;;;8.50;99.90;;;;;;4947173;28;20031;-93
2023/04/08 22:17:47;;;;;;;24.80;15.82;;;8.50;99.90;;;;;;4943538;28;20026;-92
2023/04/08 22:20:14;;;;;;;24.75;16.35;;;8.60;99.90;;;;;;4943175;28;20030;-91
2023/04/08 22:22:40;;;;;;;26.33;16.00;;;8.70;99.90;;;;;;4943407;28;20027;-93
2023/04/08 22:25:07;;;;;;;23.88;16.45;;;8.70;99.90;;;;;;4943134;28;20027;-92
2023/04/08 22:27:34;;;;;;;26.85;16.52;;;8.80;99.90;;;;;;4943141;28;20134;-92
2023/04/08 22:30:00;;;;;;;28.30;16.33;;;8.90;99.90;;;;;;4942851;28;20030;-92
2023/04/08 22:32:30;;;;;;;26.30;16.90;;;9.00;99.90;;;;;;4942787;28;20035;-93
2023/04/08 22:34:56;;;;;;;23.77;16.70;;;9.00;99.90;;;;;;4942947;28;20118;-93
2023/04/08 22:37:23;;;;;;;26.55;16.52;;;9.10;99.90;;;;;;4942623;28;20041;-93
2023/04/08 22:39:50;;;;;;;22.15;15.18;;;9.20;99.90;;;;;;4942876;28;20038;-92
2023/04/08 22:42:17;;;;;;;21.70;15.20;;;9.30;99.90;;;;;;4958909;28;20027;-92
2023/04/08 22:44:43;;;;;;;24.10;15.77;;;9.40;99.90;;;;;;4942760;28;20034;-92
2023/04/08 22:47:10;;;;;;;20.60;14.88;;;9.40;99.90;;;;;;4942365;28;20504;-92
2023/04/08 22:49:36;;;;;;;27.00;16.48;;;9.50;99.90;;;;;;4942501;28;20178;-94
2023/04/08 22:52:04;;;;;;;28.20;18.13;;;9.50;99.90;;;;;;4958482;28;20035;-92
2023/04/08 22:54:30;;;;;;;22.40;16.10;;;9.50;99.90;;;;;;4942478;28;20489;-92
2023/04/08 22:56:57;;;;;;;28.23;17.30;;;9.60;99.90;;;;;;4949201;28;20045;-93
2023/04/08 22:59:24;;;;;;;23.80;16.80;;;9.60;99.90;;;;;;4944887;28;20023;-92
2023/04/08 23:01:51;;;;;;;26.45;17.35;;;9.60;99.90;;;;;;4942513;28;20043;-93
2023/04/08 23:04:17;;;;;;;23.38;16.48;;;9.60;99.90;;;;;;4942431;28;20019;-93
2023/04/08 23:06:44;;;;;;;24.67;17.23;;;9.60;99.90;;;;;;4942344;28;20506;-93
2023/04/08 23:09:10;;;;;;;27.80;17.40;;;9.60;99.90;;;;;;4942341;28;20118;-93
2023/04/08 23:11:37;;;;;;;27.90;17.77;;;9.60;99.90;;;;;;4942377;28;20031;-93
2023/04/08 23:14:04;;;;;;;28.48;17.27;;;9.60;99.90;;;;;;4916323;29;20036;-92
2023/04/08 23:16:31;;;;;;;30.30;16.10;;;9.60;99.90;;;;;;4900542;29;20442;-93
2023/04/08 23:18:58;;;;;;;30.25;16.40;;;9.60;99.90;;;;;;4916316;29;20051;-91
2023/04/08 23:21:25;;;;;;;24.85;15.50;;;9.70;99.90;;;;;;4906400;29;20423;-91
2023/04/08 23:23:52;;;;;;;25.10;15.40;;;9.70;99.90;;;;;;4882408;29;20132;-91
2023/04/08 23:26:20;;;;;;;21.75;13.73;;;9.70;99.90;;;;;;4882059;29;20040;-92
2023/04/08 23:28:46;;;;;;;23.05;15.13;;;9.70;99.90;;;;;;4882028;29;20131;-91
2023/04/08 23:31:13;;;;;;;23.98;15.23;;;9.60;99.90;;;;;;4881225;29;20040;-92
2023/04/08 23:33:40;;;;;;;30.33;14.35;;;9.70;99.90;;;;;;4889308;29;20040;-93
2023/04/08 23:36:11;;;;;;;26.83;14.40;;;9.70;99.90;;;;;;4888392;29;20024;-92
2023/04/08 23:38:38;;;;;;;20.73;13.50;;;9.70;99.90;;;;;;4881530;29;20029;-92
2023/04/08 23:41:11;;;;;;;20.98;13.57;;;9.80;99.90;;;;;;4897230;29;20112;-92
2023/04/08 23:43:38;;;;;;;20.20;13.95;;;9.80;99.90;;;;;;4897238;29;20092;-93
2023/04/08 23:46:04;;;;;;;19.20;12.35;;;9.90;99.90;;;;;;4925932;28;20042;-92
2023/04/08 23:48:31;;;;;;;19.75;12.90;;;9.90;99.90;;;;;;4963285;28;20039;-93
2023/04/08 23:50:57;;;;;;;22.05;13.27;;;9.90;99.90;;;;;;4945517;28;20022;-94
2023/04/08 23:53:24;;;;;;;21.73;13.48;;;9.90;99.90;;;;;;4940166;28;20039;-94
2023/04/08 23:55:51;;;;;;;21.33;13.40;;;10.00;99.90;;;;;;4942122;28;20022;-92
2023/04/08 23:58:18;;;;;;;19.83;12.40;;;10.00;99.90;;;;;;4957951;28;20023;-94
